Time;durP1;ratioP1;P1;durP2;ratioP2;P2;SDS_P1;SDS_P2;PMS_P1;PMS_P2;Temp;Humidity;BMP_temperature;BMP_pressure;BME280_temperature;BME280_humidity;BME280_pressure;Samples;Min_cycle;Max_cycle;Signal;HPM_P1;HPM_P2
2022/12/11 00:01:20;;;;;;;57.90;45.20;;;;;;;0.47;73.91;99599.63;108181;1280;23601;-76
2022/12/11 00:03:50;;;;;;;65.10;47.50;;;;;;;0.45;73.92;99598.10;108332;1280;21911;-76
2022/12/11 00:06:22;;;;;;;57.50;43.60;;;;;;;0.46;73.90;99601.70;108228;1279;21955;-77
2022/12/11 00:08:53;;;;;;;63.80;45.60;;;;;;;0.45;73.81;99598.80;108446;1280;23049;-77
2022/12/11 00:11:22;;;;;;;65.20;46.80;;;;;;;0.43;73.79;99597.27;108507;1279;23867;-76
2022/12/11 00:13:51;;;;;;;62.00;45.00;;;;;;;0.43;73.85;99592.14;108175;1280;23151;-75
2022/12/11 00:16:20;;;;;;;54.30;42.20;;;;;;;0.42;73.73;99591.45;108479;1280;21960;-75
2022/12/11 00:18:54;;;;;;;54.50;40.80;;;;;;;0.39;73.67;99594.74;108503;1280;21938;-75
2022/12/11 00:21:23;;;;;;;56.50;41.90;;;;;;;0.39;73.69;99590.80;108360;1278;23028;-73
2022/12/11 00:23:52;;;;;;;60.40;43.60;;;;;;;0.40;73.62;99584.80;108379;1280;21939;-75
2022/12/11 00:26:21;;;;;;;54.30;41.70;;;;;;;0.38;73.39;99585.68;108237;1280;21932;-75
2022/12/11 00:28:54;;;;;;;51.80;41.30;;;;;;;0.34;73.44;99587.60;108445;1278;24098;-75
2022/12/11 00:31:23;;;;;;;51.90;39.50;;;;;;;0.31;73.36;99591.03;108169;1278;21937;-75
2022/12/11 00:33:52;;;;;;;47.70;38.60;;;;;;;0.29;73.40;99592.08;108474;1274;22131;-75
2022/12/11 00:36:26;;;;;;;51.00;40.40;;;;;;;0.28;73.37;99598.59;108413;1278;23687;-74
2022/12/11 00:38:54;;;;;;;50.80;39.50;;;;;;;0.24;73.28;99601.20;108231;1280;23004;-76
2022/12/11 00:41:23;;;;;;;47.10;39.00;;;;;;;0.20;73.35;99599.00;108434;1279;21936;-74
2022/12/11 00:43:52;;;;;;;50.50;39.60;;;;;;;0.20;73.32;99601.23;108422;1274;22061;-76
2022/12/11 00:46:21;;;;;;;47.90;38.70;;;;;;;0.18;73.20;99601.24;108379;1277;21937;-75
2022/12/11 00:48:50;;;;;;;54.10;43.30;;;;;;;0.19;73.26;99598.66;108379;1280;21945;-75
2022/12/11 00:51:19;;;;;;;48.30;38.70;;;;;;;0.18;73.18;99599.02;108210;1273;21941;-75
2022/12/11 00:53:47;;;;;;;51.20;38.40;;;;;;;0.16;73.18;99604.85;108321;1280;21933;-74
2022/12/11 00:56:20;;;;;;;49.30;40.70;;;;;;;0.12;73.12;99601.10;108390;1279;22695;-74
2022/12/11 00:58:50;;;;;;;53.50;40.00;;;;;;;0.08;73.13;99598.23;108135;1261;22134;-76
2022/12/11 01:01:23;;;;;;;50.70;40.50;;;;;;;0.07;73.12;99599.43;108496;1268;21917;-76
2022/12/11 01:03:53;;;;;;;51.30;40.50;;;;;;;0.08;73.20;99594.30;108560;1279;23365;-75
2022/12/11 01:06:25;;;;;;;52.40;42.20;;;;;;;0.07;73.02;99592.76;107743;1281;22246;-75
2022/12/11 01:11:43;;;;;;;59.70;41.20;;;;;;;0.05;73.15;99596.89;108092;1283;22089;-75
2022/12/11 01:14:11;;;;;;;51.70;41.70;;;;;;;0.05;72.95;99596.88;108115;1283;22000;-75
2022/12/11 01:16:40;;;;;;;51.00;40.50;;;;;;;0.02;72.92;99595.19;107936;1282;22485;-75
2022/12/11 01:19:09;;;;;;;51.90;40.80;;;;;;;0.01;73.08;99598.27;108050;1283;21949;-76
2022/12/11 01:21:38;;;;;;;52.10;41.60;;;;;;;0.05;73.08;99594.15;107862;1283;22728;-76
2022/12/11 01:24:07;;;;;;;49.50;40.70;;;;;;;0.07;73.01;99586.61;107784;1280;23139;-75
2022/12/11 01:26:35;;;;;;;58.20;45.20;;;;;;;0.06;73.03;99584.73;108257;1279;22185;-77
2022/12/11 01:29:04;;;;;;;56.40;43.10;;;;;;;0.06;72.93;99579.59;108425;1280;24281;-76
2022/12/11 01:31:33;;;;;;;59.20;42.80;;;;;;;0.06;72.93;99577.90;108188;1280;22980;-76
2022/12/11 01:34:02;;;;;;;52.30;41.10;;;;;;;0.05;72.89;99583.36;108401;1279;22392;-76
2022/12/11 01:36:31;;;;;;;55.00;44.00;;;;;;;0.05;72.90;99582.00;108216;1280;21977;-76
2022/12/11 01:39:00;;;;;;;51.90;42.50;;;;;;;0.06;72.82;99581.81;108272;1279;21937;-74
2022/12/11 01:41:29;;;;;;;52.00;41.30;;;;;;;0.07;72.92;99583.00;108461;1280;23701;-76
2022/12/11 01:44:27;;;;;;;52.40;39.50;;;;;;;0.09;72.94;99584.88;108215;1280;23757;-75
2022/12/11 01:46:57;;;;;;;53.70;40.70;;;;;;;0.10;72.99;99586.41;108409;1275;21945;-74
2022/12/11 01:49:28;;;;;;;50.10;41.40;;;;;;;0.13;72.95;99583.83;108321;1280;23761;-75
2022/12/11 01:52:10;;;;;;;55.10;43.30;;;;;;;0.15;72.89;99581.92;108277;1278;23830;-74
2022/12/11 01:54:39;;;;;;;53.00;41.00;;;;;;;0.16;72.82;99581.92;108220;1275;21938;-75
2022/12/11 01:57:09;;;;;;;51.30;40.80;;;;;;;0.18;72.80;99581.04;108254;1281;21951;-77
2022/12/11 01:59:43;;;;;;;59.00;45.30;;;;;;;0.18;72.72;99576.77;108463;1281;22294;-75
2022/12/11 02:02:26;;;;;;;55.90;44.40;;;;;;;0.18;72.67;99569.76;108340;1279;21943;-75
2022/12/11 02:04:55;;;;;;;58.90;45.60;;;;;;;0.18;72.64;99563.59;108111;1280;24367;-75
2022/12/11 02:07:24;;;;;;;54.70;44.90;;;;;;;0.16;72.51;99558.64;108233;1280;23045;-77
2022/12/11 02:09:53;;;;;;;56.70;45.80;;;;;;;0.15;72.51;99558.66;108336;1280;22029;-74
2022/12/11 02:13:00;;;;;;;53.50;43.90;;;;;;;0.14;72.51;99554.22;108416;1279;21932;-75
2022/12/11 02:15:50;;;;;;;56.10;43.20;;;;;;;0.10;72.48;99555.27;108232;1278;23056;-77
2022/12/11 02:18:28;;;;;;;56.20;42.80;;;;;;;0.07;72.57;99550.33;108386;1280;23588;-75
2022/12/11 02:21:17;;;;;;;56.60;43.80;;;;;;;0.04;72.46;99542.31;108471;1279;21938;-74
2022/12/11 02:24:18;;;;;;;60.40;45.60;;;;;;;0.03;72.47;99538.91;108336;1276;21941;-77
2022/12/11 02:27:18;;;;;;;51.50;42.10;;;;;;;0.01;72.43;99535.68;108389;1271;22841;-75
2022/12/11 02:30:05;;;;;;;52.20;42.60;;;;;;;-0.00;72.50;99531.05;108114;1280;21949;-74
2022/12/11 02:32:49;;;;;;;53.90;40.20;;;;;;;-0.03;72.31;99528.68;108195;1275;23601;-74
2022/12/11 02:35:27;;;;;;;51.20;42.90;;;;;;;-0.05;72.28;99526.64;108238;1270;21955;-75
2022/12/11 02:38:03;;;;;;;50.10;40.20;;;;;;;-0.07;72.23;99523.75;108123;1280;23103;-76
2022/12/11 02:40:35;;;;;;;47.80;38.90;;;;;;;-0.08;72.26;99524.77;108133;1280;21934;-74
2022/12/11 02:43:08;;;;;;;51.10;38.30;;;;;;;-0.09;72.20;99524.79;108212;1279;23022;-74
2022/12/11 02:45:40;;;;;;;51.20;39.10;;;;;;;-0.11;72.15;99528.05;108156;1280;21935;-74
2022/12/11 02:48:11;;;;;;;51.20;39.40;;;;;;;-0.11;72.28;99525.84;108282;1280;21913;-75
2022/12/11 02:50:49;;;;;;;48.60;39.70;;;;;;;-0.12;72.19;99526.52;108091;1280;21955;-76
2022/12/11 02:53:23;;;;;;;50.80;38.60;;;;;;;-0.13;72.15;99526.54;108149;1282;23834;-75
2022/12/11 02:56:23;;;;;;;51.50;41.20;;;;;;;-0.14;72.08;99526.73;108332;1280;23010;-75
2022/12/11 02:59:06;;;;;;;48.10;39.80;;;;;;;-0.16;72.17;99527.94;108257;1280;21939;-75
2022/12/11 03:01:35;;;;;;;50.60;40.00;;;;;;;-0.17;72.13;99532.73;108506;1266;21942;-77
2022/12/11 03:04:04;;;;;;;53.60;41.20;;;;;;;-0.16;72.10;99533.57;108202;1278;23052;-76
2022/12/11 03:06:43;;;;;;;53.60;41.70;;;;;;;-0.16;72.05;99534.77;108482;1280;22661;-74
2022/12/11 03:09:13;;;;;;;54.40;44.10;;;;;;;-0.17;72.02;99535.97;108101;1280;23066;-77
2022/12/11 03:11:42;;;;;;;53.90;44.40;;;;;;;-0.18;71.86;99536.32;108123;1280;21932;-76
2022/12/11 03:14:13;;;;;;;51.30;42.10;;;;;;;-0.20;71.90;99532.75;108044;1280;22809;-76
2022/12/11 03:16:58;;;;;;;50.60;42.10;;;;;;;-0.19;71.98;99534.45;108271;1278;23774;-75
2022/12/11 03:19:59;;;;;;;51.10;40.70;;;;;;;-0.17;72.01;99536.84;108280;1278;23830;-77
2022/12/11 03:22:43;;;;;;;51.10;39.90;;;;;;;-0.18;71.88;99532.05;108427;1279;21967;-76
2022/12/11 03:25:27;;;;;;;49.70;41.00;;;;;;;-0.20;71.85;99528.98;108477;1280;23578;-74
2022/12/11 03:28:18;;;;;;;51.30;43.40;;;;;;;-0.19;71.79;99529.66;108530;1280;21989;-75
2022/12/11 03:30:52;;;;;;;44.50;37.60;;;;;;;-0.18;71.77;99530.84;108486;1279;23024;-75
2022/12/11 03:33:46;;;;;;;47.30;40.60;;;;;;;-0.19;71.59;99531.38;108679;1272;21940;-75
2022/12/11 03:36:23;;;;;;;44.50;36.40;;;;;;;-0.23;71.49;99532.77;108461;1278;22875;-76
2022/12/11 03:38:58;;;;;;;47.30;38.40;;;;;;;-0.26;71.53;99530.57;108122;1280;23058;-75
2022/12/11 03:41:31;;;;;;;45.70;39.20;;;;;;;-0.29;71.45;99536.06;108134;1280;23633;-75
2022/12/11 03:44:01;;;;;;;44.00;37.40;;;;;;;-0.31;71.39;99541.20;108199;1279;21944;-74
2022/12/11 03:46:35;;;;;;;43.90;38.50;;;;;;;-0.34;71.38;99544.30;108457;1280;23098;-75
2022/12/11 03:49:24;;;;;;;47.30;38.00;;;;;;;-0.35;71.45;99544.47;108284;1281;23096;-74
2022/12/11 03:51:56;;;;;;;45.10;38.30;;;;;;;-0.35;71.56;99545.15;108103;1280;23054;-75
2022/12/11 03:54:26;;;;;;;;;;;;;;;-0.33;71.55;99543.27;108183;1280;21946;-75
2022/12/11 03:56:58;;;;;;;43.10;36.00;;;;;;;-0.40;71.54;99535.45;108247;1278;21926;-75
2022/12/11 03:59:30;;;;;;;46.80;38.60;;;;;;;-0.41;71.61;99532.89;108159;1280;23693;-75
2022/12/11 04:01:59;;;;;;;;;;;;;;;-0.40;71.44;99528.61;108595;1280;21918;-76
2022/12/11 04:04:28;;;;;;;43.70;36.40;;;;;;;-0.47;71.65;99526.77;108396;1278;23071;-76
2022/12/11 04:06:57;;;;;;;40.30;35.20;;;;;;;-0.47;71.57;99526.08;108445;1278;23606;-74
2022/12/11 04:09:26;;;;;;;45.40;38.60;;;;;;;-0.45;71.55;99524.52;108400;1278;21979;-74
2022/12/11 04:11:55;;;;;;;43.80;35.90;;;;;;;-0.44;71.52;99525.20;108434;1280;24396;-76
2022/12/11 04:24:13;;;;;;;43.90;38.00;;;;;;;-0.44;71.28;99520.59;108384;1272;23627;-75
2022/12/11 04:25:36;;;;;;;44.50;37.60;;;;;;;-0.48;71.22;99518.57;108512;1280;21945;-76
2022/12/11 04:28:04;;;;;;;42.90;37.00;;;;;;;-0.49;71.21;99522.67;108105;1280;21935;-75
2022/12/11 04:30:33;;;;;;;40.40;36.00;;;;;;;-0.46;71.32;99522.15;108513;1280;21940;-76
2022/12/11 04:33:02;;;;;;;41.00;36.60;;;;;;;-0.46;71.22;99517.36;108361;1278;21944;-76
2022/12/11 04:35:31;;;;;;;41.70;36.70;;;;;;;-0.46;71.19;99519.41;108099;1271;23639;-74
2022/12/11 04:38:00;;;;;;;37.10;33.00;;;;;;;-0.47;71.15;99515.31;108162;1275;21932;-74
2022/12/11 04:40:29;;;;;;;35.80;32.00;;;;;;;-0.49;71.13;99512.93;108427;1279;21929;-75
2022/12/11 04:42:58;;;;;;;35.30;31.00;;;;;;;-0.50;71.04;99509.35;107940;1285;23704;-75
2022/12/11 04:45:26;;;;;;;37.00;32.60;;;;;;;-0.51;70.97;99511.92;107940;1286;21952;-76
2022/12/11 04:47:55;;;;;;;34.20;30.10;;;;;;;-0.52;70.90;99508.34;107976;1285;21970;-76
2022/12/11 04:50:24;;;;;;;39.90;31.50;;;;;;;-0.54;70.96;99506.65;108012;1286;22043;-76
2022/12/11 04:52:55;;;;;;;38.80;31.60;;;;;;;-0.54;70.89;99504.77;107599;1292;22734;-76
2022/12/11 04:55:24;;;;;;;36.70;32.30;;;;;;;-0.53;71.01;99503.56;107424;1289;23088;-76
2022/12/11 04:57:52;;;;;;;38.00;31.30;;;;;;;-0.51;70.93;99503.20;107425;1292;21963;-76
2022/12/11 05:00:21;;;;;;;36.20;30.20;;;;;;;-0.53;70.70;99498.09;107673;1286;21952;-76
2022/12/11 05:02:50;;;;;;;39.30;32.70;;;;;;;-0.57;70.65;99500.00;107502;1289;23806;-77
2022/12/11 05:05:19;;;;;;;38.60;32.80;;;;;;;-0.58;70.77;99500.52;107473;1289;23045;-76
2022/12/11 05:07:48;;;;;;;37.80;33.10;;;;;;;-0.57;70.83;99499.65;106916;1297;22085;-75
2022/12/11 05:10:17;;;;;;;35.70;31.80;;;;;;;-0.56;70.68;99496.75;106908;1289;22823;-74
2022/12/11 05:12:45;;;;;;;37.30;32.00;;;;;;;-0.55;70.80;99494.86;107414;1291;23920;-76
2022/12/11 05:15:14;;;;;;;43.50;35.40;;;;;;;-0.57;70.78;99493.67;107140;1291;22235;-75
2022/12/11 05:17:43;;;;;;;40.80;34.80;;;;;;;-0.59;70.63;99490.77;107383;1291;23029;-75
2022/12/11 05:20:12;;;;;;;40.10;34.70;;;;;;;-0.59;70.64;99487.70;107222;1292;21969;-75
2022/12/11 05:22:40;;;;;;;38.30;33.50;;;;;;;-0.58;70.62;99484.29;107637;1289;21947;-75
2022/12/11 05:25:09;;;;;;;44.50;38.30;;;;;;;-0.59;70.61;99483.44;107937;1280;21937;-76
2022/12/11 05:27:39;;;;;;;43.10;36.60;;;;;;;-0.61;70.53;99481.38;108378;1280;23714;-76
2022/12/11 05:30:09;;;;;;;39.10;33.90;;;;;;;-0.60;70.68;99475.58;108394;1279;23823;-77
2022/12/11 05:32:37;;;;;;;40.20;32.90;;;;;;;-0.57;70.67;99472.65;108250;1280;21954;-75
2022/12/11 05:35:06;;;;;;;39.70;34.20;;;;;;;-0.59;70.53;99470.95;108383;1280;21930;-75
2022/12/11 05:37:36;;;;;;;41.40;35.20;;;;;;;-0.58;70.57;99476.23;108295;1280;21993;-75
2022/12/11 05:40:06;;;;;;;42.20;34.20;;;;;;;-0.55;70.59;99474.52;108262;1285;21961;-76
2022/12/11 05:42:35;;;;;;;43.50;36.60;;;;;;;-0.54;70.53;99474.00;107780;1284;22020;-76
2022/12/11 05:45:05;;;;;;;46.40;39.20;;;;;;;-0.55;70.47;99473.49;107972;1286;21954;-75
2022/12/11 05:47:34;;;;;;;43.10;34.10;;;;;;;-0.55;70.46;99474.17;108033;1282;23507;-76
2022/12/11 05:50:03;;;;;;;40.70;35.10;;;;;;;-0.55;70.47;99476.39;108200;1286;23619;-76
2022/12/11 05:52:32;;;;;;;37.90;33.80;;;;;;;-0.54;70.57;99482.20;108122;1286;21955;-76
2022/12/11 05:55:00;;;;;;;41.90;35.50;;;;;;;-0.51;70.56;99482.19;107841;1286;23642;-77
2022/12/11 05:57:29;;;;;;;40.70;35.60;;;;;;;-0.50;70.54;99478.75;107630;1289;21954;-76
2022/12/11 05:59:58;;;;;;;40.80;35.20;;;;;;;-0.49;70.43;99477.22;107811;1289;22079;-74
2022/12/11 06:02:27;;;;;;;49.90;40.40;;;;;;;-0.51;70.43;99477.92;107592;1288;21934;-76
2022/12/11 06:04:56;;;;;;;52.20;40.20;;;;;;;-0.52;70.44;99477.58;107889;1288;22415;-77
2022/12/11 06:07:24;;;;;;;49.50;41.10;;;;;;;-0.51;70.60;99480.98;107797;1282;21958;-77
2022/12/11 06:09:53;;;;;;;53.90;42.60;;;;;;;-0.48;70.49;99481.30;107670;1288;21954;-76
2022/12/11 06:12:22;;;;;;;50.30;43.60;;;;;;;-0.49;70.53;99488.50;107535;1291;23705;-76
2022/12/11 06:14:51;;;;;;;44.10;38.10;;;;;;;-0.48;70.68;99492.93;107446;1286;22006;-77
2022/12/11 06:17:19;;;;;;;43.40;38.60;;;;;;;-0.47;70.65;99489.34;107849;1286;23077;-78
2022/12/11 06:19:48;;;;;;;43.60;38.20;;;;;;;-0.46;70.51;99484.38;107742;1286;21951;-75
2022/12/11 06:22:17;;;;;;;43.70;38.90;;;;;;;-0.44;70.60;99486.59;108040;1275;21944;-75
2022/12/11 06:24:46;;;;;;;48.30;42.30;;;;;;;-0.41;70.52;99487.24;107898;1286;21948;-76
2022/12/11 06:27:18;;;;;;;45.30;39.20;;;;;;;-0.40;70.54;99484.84;108123;1280;22739;-78
2022/12/11 06:29:47;;;;;;;48.70;43.30;;;;;;;-0.43;70.38;99485.02;107982;1280;23634;-77
2022/12/11 06:32:16;;;;;;;44.10;36.40;;;;;;;-0.44;70.41;99479.58;108133;1281;21935;-76
2022/12/11 06:34:44;;;;;;;48.60;40.20;;;;;;;-0.47;70.24;99480.97;108337;1280;21964;-77
2022/12/11 06:37:13;;;;;;;38.70;34.40;;;;;;;-0.51;70.29;99479.80;108189;1280;23064;-76
2022/12/11 06:39:42;;;;;;;39.10;32.80;;;;;;;-0.56;70.18;99479.64;108319;1280;21947;-75
2022/12/11 06:42:12;;;;;;;34.30;30.60;;;;;;;-0.60;70.24;99485.66;107737;1286;23685;-76
2022/12/11 06:44:41;;;;;;;35.00;31.30;;;;;;;-0.62;70.17;99484.14;107747;1284;22002;-75
2022/12/11 06:47:10;;;;;;;37.50;33.30;;;;;;;-0.65;70.21;99484.15;107771;1286;23030;-75
2022/12/11 06:49:39;;;;;;;36.80;30.70;;;;;;;-0.67;70.04;99483.48;107534;1286;21948;-78
2022/12/11 06:52:08;;;;;;;38.20;33.20;;;;;;;-0.73;69.96;99487.11;107952;1287;21956;-76
2022/12/11 06:54:44;;;;;;;39.70;34.40;;;;;;;-0.76;70.14;99489.34;107994;1286;21948;-76
2022/12/11 06:57:14;;;;;;;48.70;40.70;;;;;;;-0.76;70.23;99495.48;107898;1286;23691;-76
2022/12/11 06:59:43;;;;;;;45.40;36.60;;;;;;;-0.74;70.16;99497.88;107858;1280;21941;-75
2022/12/11 07:02:16;;;;;;;41.00;34.90;;;;;;;-0.75;70.12;99494.63;108233;1281;23071;-76
2022/12/11 07:04:46;;;;;;;43.30;34.60;;;;;;;-0.77;70.05;99493.79;108225;1281;21933;-81
2022/12/11 07:07:22;;;;;;;40.90;34.00;;;;;;;-0.79;70.04;99490.90;108269;1281;23574;-78
2022/12/11 07:09:51;;;;;;;46.20;38.80;;;;;;;-0.79;70.06;99493.46;108445;1280;21939;-77
2022/12/11 07:12:20;;;;;;;45.20;37.50;;;;;;;-0.79;69.96;99501.14;108446;1280;21959;-80
2022/12/11 07:14:49;;;;;;;42.10;36.10;;;;;;;-0.78;70.06;99501.48;108443;1271;23743;-80
2022/12/11 07:17:18;;;;;;;45.80;38.10;;;;;;;-0.77;70.03;99499.60;108177;1280;23173;-75
2022/12/11 07:19:47;;;;;;;38.50;33.20;;;;;;;-0.77;69.90;99496.52;108402;1280;21949;-79
2022/12/11 07:22:28;;;;;;;38.60;32.30;;;;;;;-0.81;69.71;99495.69;108490;1280;23592;-77
2022/12/11 07:24:56;;;;;;;36.00;30.00;;;;;;;-0.83;69.83;99500.14;108498;1277;23597;-77
2022/12/11 07:27:25;;;;;;;42.90;34.70;;;;;;;-0.83;69.92;99502.53;108314;1280;21961;-77
2022/12/11 07:29:54;;;;;;;41.40;34.60;;;;;;;-0.80;69.88;99504.56;108195;1280;21938;-77
2022/12/11 07:32:23;;;;;;;36.80;31.30;;;;;;;-0.79;69.83;99503.36;108220;1278;23595;-78
2022/12/11 07:34:52;;;;;;;36.60;31.80;;;;;;;-0.80;69.71;99504.55;108232;1277;21935;-76
2022/12/11 07:37:21;;;;;;;36.30;29.60;;;;;;;-0.80;69.72;99497.55;108510;1277;22745;-77
2022/12/11 07:39:50;;;;;;;34.60;28.80;;;;;;;-0.81;69.63;99500.98;108480;1277;21949;-76
2022/12/11 07:42:18;;;;;;;33.00;28.00;;;;;;;-0.84;69.61;99500.83;108447;1277;22998;-77
2022/12/11 07:44:47;;;;;;;35.70;30.70;;;;;;;-0.85;69.57;99500.83;108369;1277;23773;-77
2022/12/11 07:47:16;;;;;;;30.50;26.20;;;;;;;-0.85;69.55;99506.64;108213;1277;24293;-76
2022/12/11 07:49:45;;;;;;;33.10;27.30;;;;;;;-0.85;69.41;99506.81;108460;1277;22685;-77
2022/12/11 07:52:14;;;;;;;29.70;26.20;;;;;;;-0.86;69.42;99505.27;108364;1277;21933;-76
2022/12/11 07:54:42;;;;;;;31.80;26.40;;;;;;;-0.88;69.19;99506.30;108374;1277;24290;-76
2022/12/11 07:57:11;;;;;;;31.90;28.50;;;;;;;-0.90;69.16;99504.45;108462;1275;21938;-75
2022/12/11 07:59:41;;;;;;;38.60;32.50;;;;;;;-0.92;69.07;99503.09;108372;1277;21942;-76
2022/12/11 08:02:10;;;;;;;37.30;32.70;;;;;;;-0.97;69.07;99501.75;108173;1280;21953;-76
2022/12/11 08:04:39;;;;;;;34.30;30.60;;;;;;;-0.98;69.16;99507.55;108460;1280;22227;-77
2022/12/11 08:07:08;;;;;;;38.60;32.70;;;;;;;-0.97;69.20;99507.40;108381;1280;21969;-76
2022/12/11 08:09:37;;;;;;;39.80;33.60;;;;;;;-0.96;69.18;99507.21;108420;1280;22081;-77
2022/12/11 08:12:06;;;;;;;31.50;28.00;;;;;;;-0.95;69.14;99505.15;108119;1280;22708;-78
2022/12/11 08:14:35;;;;;;;31.70;28.30;;;;;;;-0.95;69.07;99500.89;108467;1280;23154;-78
2022/12/11 08:17:04;;;;;;;32.00;28.10;;;;;;;-0.94;69.02;99498.66;108458;1280;23157;-75
2022/12/11 08:19:33;;;;;;;38.20;31.40;;;;;;;-0.92;68.99;99501.39;108384;1280;21958;-77
2022/12/11 08:22:03;;;;;;;33.20;29.40;;;;;;;-0.92;68.91;99497.63;108178;1280;21938;-78
2022/12/11 08:24:31;;;;;;;29.70;25.40;;;;;;;-0.93;68.80;99495.41;108080;1286;23066;-78
2022/12/11 08:27:00;;;;;;;29.10;25.90;;;;;;;-0.93;68.69;99498.31;107966;1287;22198;-78
2022/12/11 08:29:29;;;;;;;31.50;26.60;;;;;;;-0.92;68.73;99496.44;107848;1286;21949;-79
2022/12/11 08:31:58;;;;;;;29.50;25.80;;;;;;;-0.91;68.79;99496.09;107584;1286;24063;-79
2022/12/11 08:34:27;;;;;;;31.40;25.80;;;;;;;-0.90;68.71;99493.68;107079;1286;1255102;-77
2022/12/11 08:36:56;;;;;;;42.50;31.90;;;;;;;-0.85;68.84;99495.02;108158;1286;22908;-75
2022/12/11 08:39:25;;;;;;;34.00;28.30;;;;;;;-0.81;68.79;99495.86;107936;1286;21947;-77
2022/12/11 08:41:54;;;;;;;33.30;28.70;;;;;;;-0.79;68.69;99493.45;108040;1280;21997;-76
2022/12/11 08:44:25;;;;;;;27.80;24.80;;;;;;;-0.78;68.65;99489.70;108279;1278;23079;-77
2022/12/11 08:46:54;;;;;;;27.80;24.50;;;;;;;-0.77;68.56;99487.98;108176;1280;21932;-78
2022/12/11 08:49:23;;;;;;;31.50;25.60;;;;;;;-0.75;68.62;99485.06;108146;1280;23822;-80
2022/12/11 08:51:56;;;;;;;31.10;26.40;;;;;;;-0.70;68.66;99479.73;108387;1280;21967;-78
2022/12/11 08:54:25;;;;;;;51.60;42.20;;;;;;;-0.66;68.47;99477.49;108299;1280;23726;-80
2022/12/11 08:56:53;;;;;;;45.80;40.80;;;;;;;-0.65;68.38;99475.77;108405;1280;21943;-78
2022/12/11 08:59:26;;;;;;;49.60;41.50;;;;;;;-0.63;68.36;99479.86;108398;1282;22211;-78
2022/12/11 09:01:55;;;;;;;42.60;38.00;;;;;;;-0.62;68.40;99481.05;108249;1280;23054;-80
2022/12/11 09:04:24;;;;;;;34.60;31.00;;;;;;;-0.59;68.33;99478.65;108442;1280;21939;-79
2022/12/11 09:06:53;;;;;;;40.90;32.20;;;;;;;-0.57;68.34;99479.31;108172;1280;21958;-76
2022/12/11 09:09:22;;;;;;;34.10;28.70;;;;;;;-0.54;68.25;99479.48;108575;1281;21937;-80
2022/12/11 09:11:51;;;;;;;30.50;27.00;;;;;;;-0.53;68.15;99477.92;108412;1281;22034;-78
2022/12/11 09:14:20;;;;;;;34.20;30.40;;;;;;;-0.53;68.07;99470.23;108317;1281;21951;-80
2022/12/11 09:16:49;;;;;;;31.70;28.50;;;;;;;-0.54;68.10;99468.36;108465;1280;21943;-78
2022/12/11 09:19:18;;;;;;;37.00;31.60;;;;;;;-0.54;68.00;99464.25;108318;1278;23053;-77
2022/12/11 09:21:47;;;;;;;41.20;36.90;;;;;;;-0.54;67.99;99462.37;108161;1280;21937;-78
2022/12/11 09:24:16;;;;;;;42.50;38.20;;;;;;;-0.55;67.93;99459.48;108225;1283;22702;-77
2022/12/11 09:26:46;;;;;;;40.80;36.40;;;;;;;-0.55;67.88;99450.42;108189;1280;22179;-78
2022/12/11 09:29:15;;;;;;;40.10;32.80;;;;;;;-0.55;67.86;99446.15;108385;1281;21968;-76
2022/12/11 09:31:45;;;;;;;41.30;34.90;;;;;;;-0.57;67.79;99441.71;108239;1280;23861;-77
2022/12/11 09:34:14;;;;;;;38.30;32.20;;;;;;;-0.55;67.85;99437.08;108516;1278;23617;-77
2022/12/11 09:36:43;;;;;;;34.30;29.10;;;;;;;-0.57;67.68;99435.22;108491;1280;21961;-78
2022/12/11 09:39:15;;;;;;;36.10;30.40;;;;;;;-0.60;67.60;99430.80;108152;1280;21926;-77
2022/12/11 09:41:51;;;;;;;46.20;35.40;;;;;;;-0.62;67.63;99426.89;108206;1280;22205;-77
2022/12/11 09:44:47;;;;;;;37.90;31.00;;;;;;;-0.62;67.76;99427.39;108726;1275;23599;-77
2022/12/11 09:47:35;;;;;;;40.60;29.80;;;;;;;-0.60;67.72;99426.52;108630;1272;21950;-77
2022/12/11 09:50:10;;;;;;;34.20;29.60;;;;;;;-0.63;67.61;99424.66;107979;1286;21978;-77
2022/12/11 09:53:04;;;;;;;32.20;28.70;;;;;;;-0.64;67.54;99425.88;108298;1286;23768;-77
2022/12/11 09:55:42;;;;;;;30.90;27.50;;;;;;;-0.66;67.63;99420.07;108046;1286;21955;-77
2022/12/11 09:58:47;;;;;;;32.10;27.70;;;;;;;-0.69;67.50;99416.85;108033;1286;22045;-77
2022/12/11 10:01:39;;;;;;;46.80;35.40;;;;;;;-0.74;67.47;99415.70;107498;1292;23625;-76
2022/12/11 10:04:28;;;;;;;53.10;38.50;;;;;;;-0.74;67.62;99418.77;107635;1289;23621;-74
2022/12/11 10:07:18;;;;;;;33.20;27.90;;;;;;;-0.76;67.64;99415.55;107326;1294;23616;-75
2022/12/11 10:09:55;;;;;;;33.00;27.60;;;;;;;-0.80;67.51;99414.19;107693;1286;22050;-76
2022/12/11 10:12:44;;;;;;;37.90;30.50;;;;;;;-0.82;67.56;99410.95;108212;1286;22104;-76
2022/12/11 10:15:32;;;;;;;36.80;32.60;;;;;;;-0.84;67.72;99406.19;107990;1286;21973;-76
2022/12/11 10:18:06;;;;;;;43.30;34.90;;;;;;;-0.84;67.83;99402.94;108077;1279;23692;-76
2022/12/11 10:20:38;;;;;;;48.70;39.10;;;;;;;-0.84;67.71;99401.92;108531;1280;23064;-75
2022/12/11 10:23:21;;;;;;;60.40;47.50;;;;;;;-0.83;67.72;99399.52;108133;1280;21934;-75
2022/12/11 10:26:03;;;;;;;51.60;42.60;;;;;;;-0.84;67.73;99400.55;108122;1280;21940;-76
2022/12/11 10:28:32;;;;;;;54.10;41.90;;;;;;;-0.85;67.77;99402.09;108560;1280;22416;-77
2022/12/11 10:31:27;;;;;;;38.40;33.70;;;;;;;-0.86;67.77;99396.27;108061;1280;23075;-76
2022/12/11 10:34:38;;;;;;;42.60;34.50;;;;;;;-0.85;67.94;99394.23;108133;1281;21922;-77
2022/12/11 10:37:07;;;;;;;43.60;35.60;;;;;;;-0.85;67.89;99390.81;108516;1280;23889;-76
2022/12/11 10:39:36;;;;;;;45.60;38.10;;;;;;;-0.83;67.99;99392.00;108131;1280;23107;-75
2022/12/11 10:42:18;;;;;;;43.90;34.50;;;;;;;-0.79;68.01;99394.19;108172;1276;22339;-76
2022/12/11 10:45:03;;;;;;;50.00;39.10;;;;;;;-0.74;67.95;99394.34;108492;1280;23626;-76
2022/12/11 10:47:32;;;;;;;48.00;39.30;;;;;;;-0.70;67.94;99387.65;108479;1280;23697;-75
2022/12/11 10:50:03;;;;;;;54.10;43.00;;;;;;;-0.69;67.90;99384.55;108629;1280;21956;-77
2022/12/11 10:52:36;;;;;;;62.70;47.30;;;;;;;-0.68;67.88;99378.23;108575;1273;23147;-75
2022/12/11 10:55:32;;;;;;;60.40;45.40;;;;;;;-0.65;67.89;99375.30;108233;1278;23034;-76
2022/12/11 10:58:05;;;;;;;52.50;42.30;;;;;;;-0.63;67.94;99373.23;108443;1280;23755;-75
2022/12/11 11:00:39;;;;;;;39.50;34.10;;;;;;;-0.61;67.89;99372.19;107835;1283;23826;-76
2022/12/11 11:03:27;;;;;;;40.00;35.00;;;;;;;-0.60;67.81;99367.91;107859;1284;21949;-75
2022/12/11 11:06:18;;;;;;;42.60;35.80;;;;;;;-0.59;67.82;99367.05;108089;1283;21907;-76
2022/12/11 11:08:51;;;;;;;42.70;34.20;;;;;;;-0.61;67.65;99360.91;108031;1286;21945;-76
2022/12/11 11:11:37;;;;;;;39.10;33.30;;;;;;;-0.63;67.56;99357.68;108091;1283;22012;-76
2022/12/11 11:14:17;;;;;;;42.20;33.80;;;;;;;-0.66;67.58;99351.38;107762;1289;21960;-76
2022/12/11 11:16:49;;;;;;;47.70;38.20;;;;;;;-0.70;67.40;99345.43;107826;1277;22016;-76
2022/12/11 11:19:28;;;;;;;45.60;39.30;;;;;;;-0.75;67.47;99344.27;107676;1286;21933;-76
2022/12/11 11:22:16;;;;;;;42.10;35.20;;;;;;;-0.74;67.62;99343.77;107759;1286;22353;-76
2022/12/11 11:24:54;;;;;;;45.10;37.20;;;;;;;-0.76;67.65;99341.56;107880;1286;21950;-77
2022/12/11 11:27:23;;;;;;;48.10;40.70;;;;;;;-0.77;67.63;99337.98;108004;1285;23078;-77
2022/12/11 11:30:13;;;;;;;61.50;45.80;;;;;;;-0.78;67.55;99331.33;107973;1286;23829;-79
2022/12/11 11:32:42;;;;;;;53.20;42.20;;;;;;;-0.79;67.57;99330.66;108172;1280;23703;-76
2022/12/11 11:35:10;;;;;;;58.40;45.20;;;;;;;-0.83;67.56;99329.48;108448;1280;24388;-76
2022/12/11 11:37:54;;;;;;;59.50;46.10;;;;;;;-0.84;67.78;99330.67;108372;1280;23683;-75
2022/12/11 11:40:45;;;;;;;47.50;40.50;;;;;;;-0.83;67.83;99332.90;108115;1280;22148;-74
2022/12/11 11:43:46;;;;;;;52.20;41.70;;;;;;;-0.87;67.76;99328.14;107988;1281;21948;-77
2022/12/11 11:46:36;;;;;;;41.50;34.80;;;;;;;-0.88;67.94;99325.60;107685;1289;21945;-76
2022/12/11 11:49:49;;;;;;;39.50;34.40;;;;;;;-0.86;68.01;99329.50;107667;1289;22000;-76
2022/12/11 11:52:32;;;;;;;43.90;36.50;;;;;;;-0.86;68.02;99335.31;107604;1295;23026;-76